Time;durP1;ratioP1;P1;durP2;ratioP2;P2;SDS_P1;SDS_P2;PMS_P1;PMS_P2;Temp;Humidity;BMP_temperature;BMP_pressure;BME280_temperature;BME280_humidity;BME280_pressure;Samples;Min_cycle;Max_cycle;Signal;HPM_P1;HPM_P2
2023/07/24 00:01:00;;;;;;;9.77;6.25;;;18.80;99.90;;;;;;4930150;29;20040;-64
2023/07/24 00:03:32;;;;;;;10.95;7.97;;;18.80;99.90;;;;;;4944135;29;20043;-64
2023/07/24 00:06:03;;;;;;;10.10;6.90;;;18.80;99.90;;;;;;4942686;29;20039;-64
2023/07/24 00:08:30;;;;;;;10.35;7.25;;;18.80;99.90;;;;;;4941778;29;20593;-64
2023/07/24 00:11:04;;;;;;;9.43;6.78;;;18.90;99.90;;;;;;4948185;29;20528;-64
2023/07/24 00:13:36;;;;;;;11.52;7.30;;;18.90;99.90;;;;;;4941569;29;20047;-64
2023/07/24 00:16:08;;;;;;;11.80;7.10;;;18.90;99.90;;;;;;4941834;29;20043;-64
2023/07/24 00:18:41;;;;;;;11.02;7.40;;;18.90;99.90;;;;;;4936443;29;20510;-64
2023/07/24 00:21:13;;;;;;;11.00;7.65;;;18.80;99.90;;;;;;4948813;29;20055;-64
2023/07/24 00:23:45;;;;;;;10.45;7.50;;;18.80;99.90;;;;;;4942182;29;20119;-64
2023/07/24 00:26:17;;;;;;;9.70;7.18;;;18.80;99.90;;;;;;4941784;29;20193;-65
2023/07/24 00:28:49;;;;;;;10.13;6.97;;;18.80;99.90;;;;;;4941668;29;20043;-64
2023/07/24 00:31:21;;;;;;;10.20;6.78;;;18.80;99.90;;;;;;4939920;29;20040;-64
2023/07/24 00:33:52;;;;;;;11.32;7.43;;;18.80;99.90;;;;;;4937910;29;20075;-65
2023/07/24 00:36:24;;;;;;;10.15;7.45;;;18.80;99.90;;;;;;4934430;29;20054;-64
2023/07/24 00:38:56;;;;;;;11.00;7.07;;;18.70;99.90;;;;;;4941056;28;20426;-65
2023/07/24 00:41:30;;;;;;;10.98;7.20;;;18.70;99.90;;;;;;4935586;29;20517;-64
2023/07/24 00:44:02;;;;;;;11.40;7.68;;;18.60;99.90;;;;;;4937958;29;20047;-64
2023/07/24 00:46:35;;;;;;;10.98;7.50;;;18.60;99.90;;;;;;4933379;29;20047;-64
2023/07/24 00:49:08;;;;;;;15.13;8.68;;;18.60;99.90;;;;;;4911468;29;20047;-65
2023/07/24 00:51:40;;;;;;;15.95;8.45;;;18.50;99.90;;;;;;4944320;29;20434;-64
2023/07/24 00:54:15;;;;;;;14.77;8.82;;;18.50;99.90;;;;;;4921146;29;20043;-64
2023/07/24 00:56:47;;;;;;;11.93;7.85;;;18.50;99.90;;;;;;4936227;29;20048;-64
2023/07/24 00:59:20;;;;;;;14.33;8.33;;;18.50;99.90;;;;;;4950423;29;20075;-64
2023/07/24 01:01:52;;;;;;;13.88;8.68;;;18.50;99.90;;;;;;4937968;29;20051;-64
2023/07/24 01:04:24;;;;;;;16.00;9.70;;;18.40;99.90;;;;;;4905634;29;20143;-64
2023/07/24 01:06:57;;;;;;;12.52;8.30;;;18.30;99.90;;;;;;4920906;29;20595;-64
2023/07/24 01:09:29;;;;;;;13.68;8.40;;;18.30;99.90;;;;;;4938250;29;20068;-64
2023/07/24 01:12:43;;;;;;;11.80;8.38;;;18.20;99.90;;;;;;4941134;29;20083;-64
2023/07/24 01:15:24;;;;;;;13.32;8.40;;;18.30;99.90;;;;;;4909145;29;20055;-64
2023/07/24 01:18:06;;;;;;;12.15;7.93;;;18.20;99.90;;;;;;4924944;29;20070;-64
2023/07/24 01:20:42;;;;;;;13.48;7.72;;;18.00;99.90;;;;;;4931530;29;20415;-64
2023/07/24 01:23:36;;;;;;;12.93;7.68;;;18.00;99.90;;;;;;4926132;29;20057;-64
2023/07/24 01:26:09;;;;;;;13.00;8.48;;;18.00;99.90;;;;;;4932287;29;20479;-64
2023/07/24 01:28:41;;;;;;;13.75;8.20;;;18.10;99.90;;;;;;4920706;29;20087;-64
2023/07/24 01:31:13;;;;;;;12.93;8.25;;;18.10;99.90;;;;;;4933323;29;20054;-64
2023/07/24 01:33:46;;;;;;;12.52;8.07;;;18.20;99.90;;;;;;4941642;29;20138;-64
2023/07/24 01:36:18;;;;;;;16.70;9.57;;;18.10;99.90;;;;;;4925189;29;20479;-64
2023/07/24 01:38:50;;;;;;;15.25;8.52;;;18.00;99.90;;;;;;4938653;29;20127;-64
2023/07/24 01:41:23;;;;;;;17.13;8.35;;;17.90;99.90;;;;;;4927539;29;20518;-65
2023/07/24 01:43:55;;;;;;;13.63;8.38;;;17.80;99.90;;;;;;4928997;29;20054;-65
2023/07/24 01:46:27;;;;;;;12.07;8.63;;;17.80;99.90;;;;;;4932228;29;20053;-65
2023/07/24 01:48:58;;;;;;;14.02;9.27;;;18.00;99.90;;;;;;4932604;29;20052;-65
2023/07/24 01:51:25;;;;;;;15.90;8.23;;;18.10;99.90;;;;;;4937029;29;20585;-65
2023/07/24 01:53:57;;;;;;;13.30;9.52;;;18.10;99.90;;;;;;4944596;29;20047;-65
2023/07/24 01:56:28;;;;;;;15.45;10.00;;;18.20;99.90;;;;;;4941849;29;20043;-65
2023/07/24 01:59:00;;;;;;;17.65;9.55;;;18.10;99.90;;;;;;4930767;29;20039;-66
2023/07/24 02:01:32;;;;;;;15.27;9.40;;;18.10;99.90;;;;;;4924677;29;20824;-66
2023/07/24 02:04:04;;;;;;;15.98;9.20;;;18.00;99.90;;;;;;4938277;29;20048;-66
2023/07/24 02:06:36;;;;;;;16.67;10.20;;;18.00;99.90;;;;;;4934555;29;20047;-66
2023/07/24 02:09:07;;;;;;;12.43;8.63;;;18.00;99.90;;;;;;4950950;29;20035;-66
2023/07/24 02:11:39;;;;;;;14.88;9.63;;;17.90;99.90;;;;;;4946134;29;20659;-66
2023/07/24 02:14:13;;;;;;;15.85;10.02;;;17.80;99.90;;;;;;4938042;29;20130;-66
2023/07/24 02:16:45;;;;;;;18.08;9.98;;;17.70;99.90;;;;;;4929330;29;20130;-65
2023/07/24 02:19:17;;;;;;;15.50;9.60;;;17.70;99.90;;;;;;4927403;29;20055;-66
2023/07/24 02:21:44;;;;;;;14.90;9.77;;;17.70;99.90;;;;;;4929159;29;20055;-66
2023/07/24 02:24:15;;;;;;;16.33;10.23;;;17.70;99.90;;;;;;4940312;29;20135;-66
2023/07/24 02:26:47;;;;;;;19.75;11.95;;;17.60;99.90;;;;;;4921955;29;20043;-64
2023/07/24 02:29:19;;;;;;;20.42;9.43;;;17.30;99.90;;;;;;4943371;29;20057;-64
2023/07/24 02:31:51;;;;;;;16.65;10.23;;;17.30;99.90;;;;;;4937854;29;20055;-65
2023/07/24 02:34:25;;;;;;;14.48;10.00;;;17.50;99.90;;;;;;4937621;29;20058;-65
2023/07/24 02:36:57;;;;;;;18.27;11.10;;;17.60;99.90;;;;;;4941066;29;20142;-64
2023/07/24 02:39:29;;;;;;;15.55;10.75;;;17.70;99.90;;;;;;4927419;29;20054;-65
2023/07/24 02:41:56;;;;;;;18.38;10.88;;;17.70;99.90;;;;;;4943881;29;20055;-65
2023/07/24 02:44:27;;;;;;;16.55;11.07;;;17.70;99.90;;;;;;4941834;29;20154;-65
2023/07/24 02:47:01;;;;;;;16.73;10.50;;;17.80;99.90;;;;;;4947292;29;20050;-65
2023/07/24 02:49:33;;;;;;;15.80;10.38;;;17.80;99.90;;;;;;4920950;29;20047;-65
2023/07/24 02:52:05;;;;;;;16.77;10.98;;;17.70;99.90;;;;;;4934825;29;20048;-65
2023/07/24 02:54:37;;;;;;;19.13;12.05;;;17.70;99.90;;;;;;4921395;29;20051;-65
2023/07/24 02:57:09;;;;;;;17.92;11.07;;;17.70;99.90;;;;;;4920355;29;20054;-65
2023/07/24 02:59:40;;;;;;;17.35;11.45;;;17.60;99.90;;;;;;4940932;29;20067;-65
2023/07/24 03:02:07;;;;;;;18.75;11.18;;;17.60;99.90;;;;;;4923224;29;20050;-65
2023/07/24 03:04:39;;;;;;;17.67;11.52;;;17.60;99.90;;;;;;4948690;28;20059;-65
2023/07/24 03:07:11;;;;;;;18.23;11.55;;;17.60;99.90;;;;;;4946372;29;20510;-65
2023/07/24 03:09:43;;;;;;;17.85;11.80;;;17.60;99.90;;;;;;4944680;29;20050;-65
2023/07/24 03:12:15;;;;;;;16.25;12.25;;;17.60;99.90;;;;;;4920736;29;20040;-65
2023/07/24 03:14:47;;;;;;;17.95;12.40;;;17.60;99.90;;;;;;4921405;29;20421;-65
2023/07/24 03:17:19;;;;;;;19.88;12.43;;;17.50;99.90;;;;;;4936134;29;20047;-66
2023/07/24 03:19:51;;;;;;;16.67;11.60;;;17.50;99.90;;;;;;4923828;29;20047;-65
2023/07/24 03:22:23;;;;;;;16.95;12.18;;;17.50;99.90;;;;;;4938754;29;20094;-70
2023/07/24 03:24:55;;;;;;;15.85;11.60;;;17.50;99.90;;;;;;4933445;29;20059;-65
2023/07/24 03:27:26;;;;;;;19.30;11.73;;;17.60;99.90;;;;;;4944319;29;20054;-65
2023/07/24 03:29:58;;;;;;;17.58;11.40;;;17.70;99.90;;;;;;4940176;29;20036;-65
2023/07/24 03:32:30;;;;;;;18.58;11.35;;;17.70;99.90;;;;;;4939773;29;20047;-65
2023/07/24 03:35:02;;;;;;;16.15;11.30;;;17.70;99.90;;;;;;4933203;29;20050;-65
2023/07/24 03:37:35;;;;;;;15.95;10.88;;;17.70;99.90;;;;;;4927964;29;20055;-66
2023/07/24 03:40:07;;;;;;;17.65;11.35;;;17.60;99.90;;;;;;4920452;29;20430;-65
2023/07/24 03:42:39;;;;;;;15.52;10.52;;;17.60;99.90;;;;;;4920582;29;20502;-65
2023/07/24 03:45:11;;;;;;;15.52;11.07;;;17.60;99.90;;;;;;4939535;29;20057;-65
2023/07/24 03:47:43;;;;;;;16.73;11.80;;;17.50;99.90;;;;;;4928627;29;20533;-65
2023/07/24 03:50:15;;;;;;;16.23;11.48;;;17.60;99.90;;;;;;4945733;29;20048;-65
2023/07/24 03:52:46;;;;;;;19.73;12.65;;;17.50;99.90;;;;;;4946267;29;20449;-65
2023/07/24 03:55:18;;;;;;;16.45;11.15;;;17.50;99.90;;;;;;4929365;29;20131;-65
2023/07/24 03:57:50;;;;;;;15.18;11.50;;;17.50;99.90;;;;;;4936877;29;20130;-65
2023/07/24 04:00:22;;;;;;;16.17;11.57;;;17.50;99.90;;;;;;4934757;29;20044;-65
2023/07/24 04:02:54;;;;;;;16.10;11.18;;;17.50;99.90;;;;;;4940565;29;20055;-65
2023/07/24 04:05:27;;;;;;;16.90;12.18;;;17.60;99.90;;;;;;4937772;29;20048;-64
2023/07/24 04:07:58;;;;;;;19.05;11.32;;;17.60;99.90;;;;;;4941597;29;20411;-64
2023/07/24 04:10:30;;;;;;;20.63;13.02;;;17.60;99.90;;;;;;4931746;29;20055;-65
2023/07/24 04:12:57;;;;;;;16.73;11.80;;;17.60;99.90;;;;;;4943651;28;20536;-65
2023/07/24 04:15:29;;;;;;;15.27;11.07;;;17.60;99.90;;;;;;4929389;29;20049;-64
2023/07/24 04:18:01;;;;;;;17.42;11.50;;;17.60;99.90;;;;;;4946129;29;20047;-65
2023/07/24 04:20:33;;;;;;;19.88;13.10;;;17.60;99.90;;;;;;4937924;29;20047;-65
2023/07/24 04:23:05;;;;;;;17.90;11.60;;;17.60;99.90;;;;;;4937062;29;20043;-65
2023/07/24 04:25:37;;;;;;;19.55;12.13;;;17.70;99.90;;;;;;4937461;29;20691;-65
2023/07/24 04:28:09;;;;;;;15.10;10.85;;;17.70;99.90;;;;;;4941009;29;20054;-65
2023/07/24 04:30:40;;;;;;;19.45;12.10;;;17.70;99.90;;;;;;4940065;29;20047;-66
2023/07/24 04:33:12;;;;;;;15.70;10.85;;;17.70;99.90;;;;;;4931139;29;20051;-65
2023/07/24 04:35:48;;;;;;;16.67;11.40;;;17.60;99.90;;;;;;4948248;29;20427;-65
2023/07/24 04:38:16;;;;;;;16.77;11.80;;;17.60;99.90;;;;;;4933664;29;20545;-65
2023/07/24 04:40:48;;;;;;;18.77;12.30;;;17.60;99.90;;;;;;4951399;29;20478;-65
2023/07/24 04:43:20;;;;;;;16.15;10.82;;;17.60;99.90;;;;;;4945229;29;20054;-66
2023/07/24 04:45:52;;;;;;;20.08;12.07;;;17.60;99.90;;;;;;4928498;29;20058;-65
2023/07/24 04:48:23;;;;;;;16.98;11.57;;;17.40;99.90;;;;;;4942297;29;20043;-65
2023/07/24 04:50:56;;;;;;;20.52;12.88;;;17.30;99.90;;;;;;4928965;29;20031;-65
2023/07/24 04:53:28;;;;;;;16.50;12.27;;;17.30;99.90;;;;;;4945093;29;20035;-65
2023/07/24 04:56:00;;;;;;;16.95;12.45;;;17.30;99.90;;;;;;4940319;29;20078;-65
2023/07/24 04:58:31;;;;;;;16.63;11.23;;;17.40;99.90;;;;;;4943228;29;20056;-65
2023/07/24 05:01:04;;;;;;;17.98;11.32;;;17.40;99.90;;;;;;4943163;29;20031;-64
2023/07/24 05:03:36;;;;;;;15.55;11.90;;;17.40;99.90;;;;;;4947354;29;20253;-65
2023/07/24 05:06:08;;;;;;;18.02;11.35;;;17.40;99.90;;;;;;4920093;29;20059;-65
2023/07/24 05:08:39;;;;;;;17.83;11.68;;;17.40;99.90;;;;;;4917698;29;20054;-65
2023/07/24 05:11:11;;;;;;;15.25;12.50;;;17.50;99.90;;;;;;4940538;29;20043;-65
2023/07/24 05:13:43;;;;;;;16.92;10.65;;;17.50;99.90;;;;;;4937558;29;20044;-65
2023/07/24 05:16:15;;;;;;;17.50;11.88;;;17.50;99.90;;;;;;4949453;28;20046;-65
2023/07/24 05:18:47;;;;;;;14.95;10.95;;;17.60;99.90;;;;;;4943615;29;20125;-65
2023/07/24 05:21:18;;;;;;;14.73;10.30;;;17.60;99.90;;;;;;4945345;28;20054;-65
2023/07/24 05:23:50;;;;;;;15.20;10.82;;;17.70;99.90;;;;;;4934193;29;20541;-64
2023/07/24 05:26:22;;;;;;;15.15;10.82;;;17.70;99.90;;;;;;4949566;28;20433;-65
2023/07/24 05:28:53;;;;;;;14.85;10.43;;;17.70;99.90;;;;;;4948457;29;20604;-65
2023/07/24 05:31:25;;;;;;;12.75;10.48;;;17.80;99.90;;;;;;4926985;29;20066;-65
2023/07/24 05:33:57;;;;;;;16.88;10.18;;;17.90;99.90;;;;;;4951458;29;20059;-65
2023/07/24 05:36:29;;;;;;;15.50;10.30;;;17.80;99.90;;;;;;4945496;29;20035;-65
2023/07/24 05:39:01;;;;;;;16.42;10.48;;;17.80;99.90;;;;;;4945355;29;20043;-64
2023/07/24 05:41:32;;;;;;;16.02;11.27;;;17.90;99.90;;;;;;4947105;29;20522;-65
2023/07/24 05:44:04;;;;;;;15.27;10.00;;;17.90;99.90;;;;;;4948511;29;20099;-64
2023/07/24 05:46:37;;;;;;;18.85;11.15;;;17.90;99.90;;;;;;4950768;29;20051;-65
2023/07/24 05:49:09;;;;;;;18.10;9.82;;;17.90;99.90;;;;;;4948535;29;20043;-65
2023/07/24 05:51:40;;;;;;;15.65;10.13;;;17.90;99.90;;;;;;4948930;29;20043;-65
2023/07/24 05:54:12;;;;;;;14.02;10.00;;;17.90;99.90;;;;;;4933074;29;20508;-65
2023/07/24 05:56:44;;;;;;;15.30;9.80;;;18.00;99.90;;;;;;4943701;29;20040;-65
2023/07/24 05:59:16;;;;;;;14.43;9.65;;;18.10;99.90;;;;;;4949597;29;20047;-65
2023/07/24 06:01:48;;;;;;;13.63;10.02;;;18.20;99.90;;;;;;4944179;29;20048;-65
2023/07/24 06:04:20;;;;;;;14.15;10.40;;;18.30;99.90;;;;;;4929296;29;20070;-65
2023/07/24 06:06:51;;;;;;;14.40;10.15;;;18.50;99.90;;;;;;4943888;29;20055;-65
2023/07/24 06:09:23;;;;;;;16.38;10.50;;;18.60;99.90;;;;;;4949080;29;20043;-64
2023/07/24 06:11:55;;;;;;;14.27;9.52;;;18.60;99.90;;;;;;4919122;29;20506;-65
2023/07/24 06:14:27;;;;;;;14.63;10.05;;;18.60;99.90;;;;;;4935875;29;20043;-65
2023/07/24 06:16:59;;;;;;;14.25;10.32;;;18.60;99.90;;;;;;4946235;29;20433;-65
2023/07/24 06:19:31;;;;;;;13.63;9.80;;;18.50;99.90;;;;;;4946835;29;20073;-65
2023/07/24 06:22:03;;;;;;;17.30;10.95;;;18.50;99.90;;;;;;4931184;29;20062;-65
2023/07/24 06:24:29;;;;;;;14.02;10.93;;;18.50;99.90;;;;;;4943560;29;20049;-65
2023/07/24 06:27:01;;;;;;;12.70;9.38;;;18.40;99.90;;;;;;4930682;29;20044;-64
2023/07/24 06:29:33;;;;;;;12.60;8.95;;;18.30;99.90;;;;;;4929382;29;20523;-64
2023/07/24 06:32:06;;;;;;;15.45;7.97;;;18.30;99.90;;;;;;4941138;29;20050;-64
2023/07/24 06:34:37;;;;;;;10.18;7.47;;;18.30;99.90;;;;;;4941997;29;20047;-63
2023/07/24 06:37:09;;;;;;;17.65;9.55;;;18.10;99.90;;;;;;4936964;29;20044;-63
2023/07/24 06:39:41;;;;;;;15.02;8.95;;;18.00;99.90;;;;;;4932171;29;20406;-63
2023/07/24 06:42:13;;;;;;;12.95;8.23;;;17.80;99.90;;;;;;4951446;29;20071;-64
2023/07/24 06:44:45;;;;;;;14.25;9.05;;;17.80;99.90;;;;;;4942421;29;20101;-64
2023/07/24 06:47:17;;;;;;;13.98;8.07;;;17.80;99.90;;;;;;4945696;29;20062;-64
2023/07/24 06:49:44;;;;;;;9.68;7.22;;;17.80;99.90;;;;;;4946397;29;20142;-64
2023/07/24 06:52:16;;;;;;;10.15;6.65;;;17.80;99.90;;;;;;4946682;29;20523;-64
2023/07/24 06:54:43;;;;;;;12.90;8.18;;;17.90;99.90;;;;;;4943021;29;20180;-64
2023/07/24 06:57:15;;;;;;;9.75;6.75;;;17.90;99.90;;;;;;4946716;29;20063;-64
2023/07/24 06:59:47;;;;;;;8.98;6.65;;;17.80;99.90;;;;;;4953712;29;20035;-65
2023/07/24 07:02:19;;;;;;;11.82;7.00;;;17.80;99.90;;;;;;4952983;29;20105;-64
2023/07/24 07:04:50;;;;;;;8.70;5.47;;;17.70;99.90;;;;;;4922872;29;20047;-68
2023/07/24 07:07:17;;;;;;;11.25;7.10;;;17.70;99.90;;;;;;4943475;29;20047;-68
2023/07/24 07:09:49;;;;;;;11.05;6.75;;;17.70;99.90;;;;;;4946827;29;20425;-68
2023/07/24 07:12:21;;;;;;;12.05;6.90;;;17.70;99.90;;;;;;4945664;29;20510;-68
2023/07/24 07:14:52;;;;;;;10.95;6.72;;;17.60;99.90;;;;;;4947072;29;20219;-69
2023/07/24 07:17:24;;;;;;;9.93;6.20;;;17.60;99.90;;;;;;4934320;29;20040;-68
2023/07/24 07:19:57;;;;;;;10.40;6.57;;;17.50;99.90;;;;;;4930374;29;20070;-69
2023/07/24 07:22:25;;;;;;;11.38;6.72;;;17.50;99.90;;;;;;4940189;29;20127;-69
2023/07/24 07:24:51;;;;;;;9.88;6.10;;;17.50;99.90;;;;;;4941518;29;20134;-68
2023/07/24 07:27:23;;;;;;;9.10;6.68;;;17.40;99.90;;;;;;4946806;29;20048;-68
2023/07/24 07:29:55;;;;;;;10.98;7.43;;;17.40;99.90;;;;;;4927191;29;20507;-68
2023/07/24 07:32:27;;;;;;;11.88;7.43;;;17.40;99.90;;;;;;4944088;29;20510;-69
2023/07/24 07:34:58;;;;;;;11.05;7.43;;;17.40;99.90;;;;;;4928483;29;20513;-68
2023/07/24 07:37:31;;;;;;;10.20;7.07;;;17.40;99.90;;;;;;4943941;29;20446;-64
2023/07/24 07:39:57;;;;;;;9.90;6.57;;;17.40;99.90;;;;;;4930341;29;20039;-64
2023/07/24 07:42:29;;;;;;;10.25;7.18;;;17.40;99.90;;;;;;4932148;29;20522;-64
2023/07/24 07:45:01;;;;;;;10.68;6.97;;;17.40;99.90;;;;;;4935801;29;20529;-64
2023/07/24 07:47:32;;;;;;;11.00;7.20;;;17.40;99.90;;;;;;4948899;29;20031;-64
2023/07/24 07:50:05;;;;;;;11.10;7.25;;;17.50;99.90;;;;;;4941837;29;20054;-65
2023/07/24 07:52:37;;;;;;;8.27;6.65;;;17.50;99.90;;;;;;4938628;29;20568;-65
2023/07/24 07:55:06;;;;;;;8.98;6.55;;;17.60;99.90;;;;;;4945271;29;20035;-65
2023/07/24 07:57:38;;;;;;;12.27;7.35;;;17.60;99.90;;;;;;4948040;29;20051;-65
2023/07/24 08:00:11;;;;;;;11.18;7.03;;;17.70;99.90;;;;;;4945656;29;20070;-65
2023/07/24 08:02:43;;;;;;;13.38;7.60;;;17.80;99.90;;;;;;4939847;29;20119;-65
2023/07/24 08:05:15;;;;;;;10.05;6.75;;;17.70;99.90;;;;;;4943118;29;20068;-65
2023/07/24 08:07:47;;;;;;;9.55;6.63;;;17.70;99.90;;;;;;4936364;29;20073;-65
2023/07/24 08:10:19;;;;;;;9.23;5.75;;;17.70;99.90;;;;;;4941177;29;20055;-65
2023/07/24 08:12:51;;;;;;;9.10;5.85;;;17.80;99.90;;;;;;4936509;29;20047;-65
2023/07/24 08:15:22;;;;;;;8.82;6.30;;;17.90;99.90;;;;;;4941748;29;20410;-64
2023/07/24 08:17:54;;;;;;;9.50;6.47;;;18.10;99.90;;;;;;4943799;29;20042;-65
2023/07/24 08:20:26;;;;;;;9.68;6.35;;;18.20;99.90;;;;;;4942446;29;20058;-65
2023/07/24 08:22:58;;;;;;;10.32;6.78;;;18.30;99.90;;;;;;4947360;29;20111;-65
2023/07/24 08:25:24;;;;;;;9.85;5.88;;;18.40;99.90;;;;;;4946325;29;20041;-65
2023/07/24 08:27:56;;;;;;;6.80;5.32;;;18.50;99.90;;;;;;4946385;29;20040;-65
2023/07/24 08:30:28;;;;;;;7.90;5.05;;;18.70;99.90;;;;;;4938212;29;20054;-65
2023/07/24 08:33:00;;;;;;;7.90;5.38;;;18.90;99.90;;;;;;4945069;29;20570;-65
2023/07/24 08:35:32;;;;;;;8.48;5.57;;;19.10;99.90;;;;;;4928913;29;20043;-64
2023/07/24 08:38:04;;;;;;;11.23;6.50;;;19.30;99.90;;;;;;4939803;29;20043;-65
2023/07/24 08:40:36;;;;;;;6.25;4.35;;;19.40;99.90;;;;;;4926678;29;20545;-65
2023/07/24 08:43:03;;;;;;;7.40;4.07;;;19.50;99.90;;;;;;4942308;29;20045;-65
2023/07/24 08:45:37;;;;;;;5.50;4.00;;;19.70;99.90;;;;;;4938659;29;20043;-64
2023/07/24 08:48:10;;;;;;;5.80;3.90;;;19.80;99.90;;;;;;4928530;29;20051;-65
2023/07/24 08:50:41;;;;;;;5.35;3.97;;;19.90;99.90;;;;;;4946920;29;20043;-64
2023/07/24 08:53:14;;;;;;;6.60;3.95;;;19.90;99.90;;;;;;4938599;29;20083;-64
2023/07/24 08:55:51;;;;;;;7.03;4.53;;;20.10;99.90;;;;;;4938617;29;20044;-64
2023/07/24 08:58:22;;;;;;;6.82;4.43;;;20.20;99.90;;;;;;4920058;29;20040;-64
2023/07/24 09:00:57;;;;;;;6.45;4.53;;;20.30;99.90;;;;;;4945731;28;20057;-64
2023/07/24 09:03:30;;;;;;;6.78;4.75;;;20.30;99.90;;;;;;4948288;29;20065;-64
2023/07/24 09:06:09;;;;;;;7.47;4.82;;;20.30;99.90;;;;;;4950009;29;20052;-64
2023/07/24 09:08:42;;;;;;;5.72;4.22;;;20.30;99.90;;;;;;4947927;29;20058;-64
2023/07/24 09:11:15;;;;;;;7.43;4.57;;;20.30;99.90;;;;;;4942017;29;20648;-64
2023/07/24 09:13:47;;;;;;;7.72;4.40;;;20.50;99.90;;;;;;4952455;29;20051;-64
2023/07/24 09:16:23;;;;;;;8.85;4.75;;;20.70;99.90;;;;;;4954137;29;20484;-65
2023/07/24 09:18:57;;;;;;;7.38;4.95;;;20.70;99.90;;;;;;4945216;29;20039;-64
2023/07/24 09:21:30;;;;;;;6.40;4.43;;;20.70;99.90;;;;;;4945996;29;20039;-64
2023/07/24 09:24:13;;;;;;;6.70;5.10;;;20.80;99.90;;;;;;4946279;29;20089;-64
2023/07/24 09:26:52;;;;;;;7.35;4.55;;;20.90;99.90;;;;;;4949534;29;20086;-64
2023/07/24 09:29:20;;;;;;;6.55;4.90;;;21.00;99.90;;;;;;4948649;29;20102;-64
2023/07/24 09:31:52;;;;;;;9.60;6.07;;;21.10;99.90;;;;;;4943027;28;20050;-64
2023/07/24 09:34:25;;;;;;;7.03;5.05;;;21.30;99.90;;;;;;4933442;29;20063;-64
2023/07/24 09:36:57;;;;;;;6.40;4.70;;;21.40;99.90;;;;;;4957015;29;20047;-65
2023/07/24 09:39:29;;;;;;;7.30;4.60;;;21.60;99.90;;;;;;4938496;29;20051;-64
2023/07/24 09:42:04;;;;;;;6.82;4.60;;;21.70;99.90;;;;;;4955324;29;20121;-64
2023/07/24 09:44:36;;;;;;;6.57;4.63;;;21.60;99.90;;;;;;4944672;29;20051;-63
2023/07/24 09:47:07;;;;;;;6.18;4.55;;;21.60;99.90;;;;;;4945677;29;20502;-64
2023/07/24 09:49:39;;;;;;;5.95;4.20;;;21.60;99.90;;;;;;4948854;28;20052;-64
2023/07/24 09:52:12;;;;;;;5.70;4.20;;;21.60;99.90;;;;;;4946746;29;20519;-64
2023/07/24 09:54:59;;;;;;;6.03;4.40;;;21.60;99.90;;;;;;4944746;29;20098;-64
2023/07/24 09:57:32;;;;;;;6.97;4.50;;;21.50;99.90;;;;;;4954411;29;20047;-63
2023/07/24 10:00:04;;;;;;;;;;;21.40;99.90;;;;;;4952850;29;20122;-64
2023/07/24 10:02:37;;;;;;;5.82;4.13;;;21.30;99.90;;;;;;4953270;29;20294;-64
2023/07/24 10:05:09;;;;;;;8.38;4.45;;;21.20;99.90;;;;;;4942811;28;20039;-63
2023/07/24 10:07:41;;;;;;;5.22;4.00;;;21.10;99.90;;;;;;4945236;29;20062;-63
2023/07/24 10:10:13;;;;;;;7.55;5.10;;;21.20;99.90;;;;;;4949034;28;20055;-64
2023/07/24 10:12:45;;;;;;;9.77;4.80;;;21.20;99.90;;;;;;4944312;28;20119;-64
2023/07/24 10:15:13;;;;;;;6.95;4.75;;;21.20;99.90;;;;;;4944723;29;20502;-64
2023/07/24 10:17:44;;;;;;;6.25;4.18;;;21.30;99.90;;;;;;4944949;29;20062;-63
2023/07/24 10:20:17;;;;;;;8.00;4.85;;;21.50;99.90;;;;;;4947617;29;20115;-63
2023/07/24 10:22:49;;;;;;;6.93;4.60;;;21.70;99.90;;;;;;4935367;29;20048;-63
2023/07/24 10:25:31;;;;;;;7.75;5.22;;;22.00;99.90;;;;;;4938267;29;20525;-65
2023/07/24 10:28:10;;;;;;;5.75;3.97;;;22.20;99.90;;;;;;4926922;29;20070;-64
2023/07/24 10:30:47;;;;;;;7.03;4.45;;;22.40;99.90;;;;;;4930278;29;20122;-64
2023/07/24 10:33:21;;;;;;;6.72;4.93;;;22.50;99.90;;;;;;4939425;29;20051;-64
2023/07/24 10:36:10;;;;;;;6.93;5.18;;;22.60;99.90;;;;;;4944778;29;20469;-64
2023/07/24 10:38:43;;;;;;;6.60;4.68;;;22.80;99.90;;;;;;4930575;29;20039;-65
2023/07/24 10:41:15;;;;;;;5.55;4.30;;;23.10;99.90;;;;;;4926204;29;20569;-65
2023/07/24 10:43:51;;;;;;;7.25;4.90;;;23.40;99.90;;;;;;4939132;29;20434;-64
2023/07/24 10:46:23;;;;;;;6.70;4.65;;;23.70;99.90;;;;;;4932999;29;20040;-63
2023/07/24 10:48:55;;;;;;;6.18;4.75;;;23.80;99.90;;;;;;4949511;29;20036;-64
2023/07/24 10:51:26;;;;;;;6.85;4.63;;;23.80;99.90;;;;;;4945345;29;20040;-64
2023/07/24 10:53:53;;;;;;;6.38;5.18;;;24.00;99.90;;;;;;4945119;29;20069;-64
2023/07/24 10:56:25;;;;;;;8.38;5.07;;;24.00;99.90;;;;;;4947756;29;20046;-63
2023/07/24 10:58:52;;;;;;;5.90;4.53;;;24.00;99.90;;;;;;4929548;29;20055;-63
2023/07/24 11:01:24;;;;;;;6.03;4.75;;;24.00;99.90;;;;;;4943120;29;20046;-63
2023/07/24 11:03:55;;;;;;;6.75;4.65;;;24.00;99.90;;;;;;4912728;29;20040;-63
2023/07/24 11:06:28;;;;;;;6.82;5.57;;;23.90;99.90;;;;;;4923450;29;20035;-64
2023/07/24 11:09:00;;;;;;;8.00;5.00;;;23.90;99.90;;;;;;4945359;29;20054;-64
2023/07/24 11:11:33;;;;;;;6.93;4.82;;;24.00;99.90;;;;;;4945213;29;20051;-64
2023/07/24 11:14:05;;;;;;;8.52;5.47;;;24.00;99.90;;;;;;4945531;29;20054;-64
2023/07/24 11:16:47;;;;;;;8.00;5.20;;;24.10;99.90;;;;;;4946139;29;20039;-63
2023/07/24 11:19:25;;;;;;;6.72;5.10;;;24.10;99.90;;;;;;4946714;29;20032;-64
2023/07/24 11:21:58;;;;;;;8.07;5.53;;;24.20;99.90;;;;;;4943384;29;20050;-63
2023/07/24 11:24:30;;;;;;;7.03;5.25;;;24.20;99.90;;;;;;4944120;28;20086;-63
2023/07/24 11:27:10;;;;;;;6.03;4.60;;;24.10;99.90;;;;;;4942592;29;20063;-64
2023/07/24 11:29:38;;;;;;;5.85;4.03;;;23.90;99.90;;;;;;4943331;29;20043;-63
2023/07/24 11:32:10;;;;;;;6.88;4.82;;;23.70;99.90;;;;;;4947428;28;20126;-64
2023/07/24 11:34:37;;;;;;;9.05;4.50;;;23.50;99.90;;;;;;4943850;29;20047;-64
2023/07/24 11:37:09;;;;;;;7.25;4.60;;;23.40;99.90;;;;;;4944307;28;20039;-63
2023/07/24 11:39:40;;;;;;;5.72;4.43;;;23.20;99.90;;;;;;4946235;29;20518;-64
2023/07/24 11:42:12;;;;;;;9.93;5.00;;;23.00;99.90;;;;;;4944606;29;20049;-64
2023/07/24 11:44:40;;;;;;;6.93;5.38;;;22.80;99.90;;;;;;4948362;29;20123;-63
2023/07/24 11:47:11;;;;;;;8.47;5.10;;;22.50;99.90;;;;;;4944495;29;20071;-64
2023/07/24 11:49:48;;;;;;;8.18;5.43;;;22.00;99.90;;;;;;4934392;29;20125;-64
2023/07/24 11:52:15;;;;;;;8.18;5.28;;;21.40;99.90;;;;;;4927426;29;20035;-64
2023/07/24 11:55:00;;;;;;;10.32;5.53;;;21.00;99.90;;;;;;4942821;29;20051;-63
2023/07/24 11:57:32;;;;;;;7.20;4.93;;;20.70;99.90;;;;;;4944313;29;20040;-64
2023/07/24 12:00:05;;;;;;;8.05;5.60;;;20.50;99.90;;;;;;4943155;29;20043;-64
2023/07/24 12:02:37;;;;;;;10.50;5.40;;;20.30;99.90;;;;;;4945086;29;20071;-64
2023/07/24 12:05:05;;;;;;;6.05;4.78;;;20.10;99.90;;;;;;4946263;29;20045;-64
2023/07/24 12:07:37;;;;;;;8.63;4.83;;;20.00;99.90;;;;;;4941614;29;20131;-64
2023/07/24 12:10:08;;;;;;;7.93;5.20;;;19.90;99.90;;;;;;4945886;29;20298;-64
2023/07/24 12:12:43;;;;;;;10.02;5.07;;;19.90;99.90;;;;;;4932344;29;20043;-64
2023/07/24 12:15:15;;;;;;;6.13;4.85;;;19.70;99.90;;;;;;4944308;29;20040;-64
2023/07/24 12:17:47;;;;;;;7.22;5.55;;;19.70;99.90;;;;;;4930150;29;20039;-64
2023/07/24 12:20:19;;;;;;;8.02;5.00;;;19.60;99.90;;;;;;4951620;29;20047;-64
2023/07/24 12:22:51;;;;;;;7.10;4.82;;;19.60;99.90;;;;;;4948200;29;20039;-65
2023/07/24 12:25:24;;;;;;;5.97;4.80;;;19.50;99.90;;;;;;4945736;29;20044;-66
2023/07/24 12:27:55;;;;;;;9.87;5.33;;;19.50;99.90;;;;;;4945864;29;20047;-64
2023/07/24 12:30:27;;;;;;;7.53;5.28;;;19.30;99.90;;;;;;4943903;29;20126;-64
2023/07/24 12:32:55;;;;;;;10.07;5.95;;;19.30;99.90;;;;;;4942216;29;20212;-65
2023/07/24 12:35:27;;;;;;;8.70;4.80;;;19.30;99.90;;;;;;4939345;28;20482;-64
2023/07/24 12:37:59;;;;;;;8.13;5.57;;;19.30;99.90;;;;;;4922001;29;20047;-64
2023/07/24 12:40:31;;;;;;;7.93;5.13;;;19.50;99.90;;;;;;4942104;29;20590;-64
2023/07/24 12:43:02;;;;;;;6.85;5.00;;;19.60;99.90;;;;;;4946168;29;20051;-64
2023/07/24 12:45:34;;;;;;;9.15;5.15;;;19.60;99.90;;;;;;4947668;29;20048;-64
2023/07/24 12:48:07;;;;;;;6.63;4.60;;;19.60;99.90;;;;;;4946916;29;20063;-65
2023/07/24 12:50:39;;;;;;;6.80;5.10;;;19.60;99.90;;;;;;4943655;29;20039;-65
2023/07/24 12:53:10;;;;;;;8.95;4.88;;;19.70;99.90;;;;;;4946885;29;20051;-64
2023/07/24 12:55:42;;;;;;;7.22;4.90;;;19.80;99.90;;;;;;4946106;29;20892;-65
2023/07/24 12:58:14;;;;;;;8.07;4.72;;;19.90;99.90;;;;;;4941549;29;20510;-65
2023/07/24 13:00:46;;;;;;;6.97;5.30;;;19.90;99.90;;;;;;4938886;29;20039;-65
2023/07/24 13:03:18;;;;;;;6.53;4.68;;;20.00;99.90;;;;;;4935516;29;20044;-65